createdAt,value
2022-10-19T00:01:24.751Z,101447.05
2022-10-19T00:06:37.091Z,101449.38
2022-10-19T00:11:48.581Z,101447.42
2022-10-19T00:17:28.496Z,101450.77
2022-10-19T00:23:35.458Z,101454.03
2022-10-19T00:29:35.026Z,101450.94
2022-10-19T00:35:24.697Z,101458.08
2022-10-19T00:40:33.507Z,101456.17
2022-10-19T00:45:58.447Z,101451.96
2022-10-19T00:51:23.399Z,101448.23
2022-10-19T00:56:41.949Z,101450.71
2022-10-19T01:01:57.932Z,101448.34
2022-10-19T01:07:10.059Z,101452.45
2022-10-19T01:12:46.325Z,101448.61
2022-10-19T01:18:05.818Z,101448.92
2022-10-19T01:23:57.478Z,101443.51
2022-10-19T01:29:17.348Z,101435.10
2022-10-19T01:34:47.000Z,101436.27
2022-10-19T01:40:14.386Z,101426.98
2022-10-19T01:45:54.051Z,101414.63
2022-10-19T01:51:52.084Z,101423.10
2022-10-19T01:57:23.550Z,101418.73
2022-10-19T02:02:37.156Z,101417.61
2022-10-19T02:08:02.654Z,101414.83
2022-10-19T02:13:12.967Z,101416.41
2022-10-19T02:18:48.011Z,101413.00
2022-10-19T02:23:59.535Z,101408.15
2022-10-19T02:29:09.212Z,101406.24
2022-10-19T02:34:22.951Z,101402.40
2022-10-19T02:40:02.857Z,101396.02
2022-10-19T02:51:51.879Z,101378.48
2022-10-19T02:57:32.872Z,101379.00
2022-10-19T03:03:11.256Z,101384.57
2022-10-19T03:08:45.062Z,101385.25
2022-10-19T03:14:20.069Z,101386.71
2022-10-19T03:19:39.978Z,101387.38
2022-10-19T03:24:57.917Z,101387.75
2022-10-19T03:30:14.019Z,101391.44
2022-10-19T03:36:07.886Z,101390.73
2022-10-19T03:42:06.555Z,101391.32
2022-10-19T03:47:41.882Z,101382.84
2022-10-19T03:53:23.612Z,101387.05
2022-10-19T03:58:39.070Z,101389.16
2022-10-19T04:03:58.301Z,101392.33
2022-10-19T04:10:43.335Z,101393.50
2022-10-19T04:22:19.573Z,101395.67
2022-10-19T04:35:30.097Z,101404.16
2022-10-19T04:48:00.483Z,101401.00
2022-10-19T04:53:21.470Z,101395.09
2022-10-19T05:05:54.521Z,101396.36
2022-10-19T05:12:01.352Z,101391.49
2022-10-19T05:17:21.202Z,101393.84
2022-10-19T05:22:30.441Z,101391.69
2022-10-19T05:34:55.356Z,101402.06
2022-10-19T05:47:14.450Z,101415.39
2022-10-19T05:52:21.864Z,101416.09
2022-10-19T05:57:31.366Z,101417.58
2022-10-19T06:02:39.087Z,101418.73
2022-10-19T06:07:49.484Z,101430.05
2022-10-19T06:12:59.058Z,101429.39
2022-10-19T06:18:08.097Z,101430.77
2022-10-19T06:23:17.181Z,101438.85
2022-10-19T06:28:24.287Z,101437.27
2022-10-19T06:33:32.560Z,101439.43
2022-10-19T06:38:40.113Z,101447.16
2022-10-19T06:43:52.036Z,101453.66
2022-10-19T06:49:00.804Z,101456.17
2022-10-19T06:54:08.514Z,101464.05
2022-10-19T06:59:17.948Z,101473.34
2022-10-19T07:04:24.918Z,101480.34
2022-10-19T07:09:32.130Z,101481.01
2022-10-19T07:14:40.051Z,101489.89
2022-10-19T07:19:49.044Z,101494.70
2022-10-19T07:24:56.033Z,101497.40
2022-10-19T07:30:02.881Z,101504.43
2022-10-19T07:35:10.581Z,101503.27
2022-10-19T07:40:17.841Z,101515.03
2022-10-19T07:45:24.772Z,101529.15
2022-10-19T07:50:31.649Z,101535.63
2022-10-19T07:55:40.906Z,101536.34
2022-10-19T08:00:47.967Z,101538.10
2022-10-19T08:05:55.097Z,101540.83
2022-10-19T08:11:09.858Z,101543.19
2022-10-19T08:16:33.091Z,101546.67
2022-10-19T08:21:42.112Z,101554.33
2022-10-19T08:26:51.347Z,101558.29
2022-10-19T08:31:58.487Z,101560.42
2022-10-19T08:37:14.738Z,101569.01
2022-10-19T08:42:42.681Z,101564.89
2022-10-19T08:47:58.687Z,101571.80
2022-10-19T08:53:08.918Z,101581.48
2022-10-19T08:58:31.902Z,101587.64
2022-10-19T09:03:55.869Z,101600.95
2022-10-19T09:09:03.515Z,101602.80
2022-10-19T09:14:17.707Z,101596.81
2022-10-19T09:19:30.171Z,101604.55
2022-10-19T09:24:48.267Z,101606.88
2022-10-19T09:29:58.704Z,101605.09
2022-10-19T09:35:08.553Z,101610.58
2022-10-19T09:40:18.683Z,101621.09
2022-10-19T09:45:35.937Z,101624.69
2022-10-19T09:50:46.951Z,101623.92
2022-10-19T09:56:03.217Z,101632.04
2022-10-19T10:01:40.164Z,101635.76
2022-10-19T10:06:51.562Z,101644.84
2022-10-19T10:12:00.890Z,101646.19
2022-10-19T10:17:14.690Z,101658.95
2022-10-19T10:22:29.521Z,101666.74
2022-10-19T10:27:39.757Z,101670.98
2022-10-19T10:32:53.192Z,101674.11
2022-10-19T10:38:10.567Z,101671.20
2022-10-19T10:43:22.587Z,101669.11
2022-10-19T10:48:33.282Z,101671.16
2022-10-19T10:53:43.490Z,101675.11
2022-10-19T10:58:57.425Z,101683.70
2022-10-19T11:04:10.805Z,101683.44
2022-10-19T11:09:27.239Z,101690.75
2022-10-19T11:14:45.226Z,101690.20
2022-10-19T11:19:52.549Z,101690.31
2022-10-19T11:25:21.111Z,101692.42
2022-10-19T11:30:26.779Z,101697.69
2022-10-19T11:35:47.046Z,101690.20
2022-10-19T11:41:18.853Z,101695.30
2022-10-19T11:46:33.091Z,101699.84
2022-10-19T11:51:47.144Z,101696.38
2022-10-19T11:57:06.363Z,101701.94
2022-10-19T12:02:39.634Z,101711.13
2022-10-19T12:08:04.541Z,101711.32
2022-10-19T12:13:16.289Z,101713.38
2022-10-19T12:18:31.841Z,101711.58
2022-10-19T12:23:42.847Z,101718.27
2022-10-19T12:28:55.882Z,101720.19
2022-10-19T12:34:09.634Z,101717.10
2022-10-19T12:39:23.353Z,101716.42
2022-10-19T12:44:58.894Z,101727.99
2022-10-19T12:50:07.828Z,101732.09
2022-10-19T12:55:34.842Z,101730.42
2022-10-19T13:00:41.935Z,101731.66
2022-10-19T13:06:00.171Z,101733.91
2022-10-19T13:11:10.147Z,101735.45
2022-10-19T13:16:49.912Z,101732.98
2022-10-19T13:22:24.928Z,101746.76
2022-10-19T13:27:39.663Z,101766.52
2022-10-19T13:32:48.624Z,101767.58
2022-10-19T13:38:26.586Z,101773.02
2022-10-19T13:43:33.958Z,101776.14
2022-10-19T13:49:15.903Z,101776.97
2022-10-19T13:54:46.367Z,101786.96
2022-10-19T14:00:14.277Z,101791.14
2022-10-19T14:05:54.607Z,101793.27
2022-10-19T14:11:05.777Z,101791.45
2022-10-19T14:16:22.339Z,101796.46
2022-10-19T14:21:42.582Z,101797.05
2022-10-19T14:26:52.383Z,101802.49
2022-10-19T14:32:01.903Z,101804.69
2022-10-19T14:37:18.150Z,101808.92
2022-10-19T14:42:25.253Z,101814.94
2022-10-19T14:47:32.384Z,101821.93
2022-10-19T14:52:41.942Z,101827.37
2022-10-19T14:57:53.252Z,101830.02
2022-10-19T15:03:05.905Z,101837.48
2022-10-19T15:08:21.374Z,101843.41
2022-10-19T15:13:33.082Z,101852.58
2022-10-19T15:18:49.668Z,101859.14
2022-10-19T15:24:13.748Z,101866.08
2022-10-19T15:29:30.672Z,101867.77
2022-10-19T15:34:37.687Z,101868.44
2022-10-19T15:39:48.664Z,101869.80
2022-10-19T15:44:57.704Z,101867.10
2022-10-19T15:50:42.581Z,101868.02
2022-10-19T15:55:57.498Z,101871.84
2022-10-19T16:01:20.531Z,101879.83
2022-10-19T16:06:33.638Z,101887.07
2022-10-19T16:11:41.358Z,101902.38
2022-10-19T16:16:54.281Z,101909.01
2022-10-19T16:22:06.448Z,101910.52
2022-10-19T16:27:17.558Z,101918.00
2022-10-19T16:32:28.863Z,101914.06
2022-10-19T16:37:46.268Z,101915.68
2022-10-19T16:42:56.824Z,101919.30
2022-10-19T16:48:06.170Z,101929.45
2022-10-19T16:53:14.433Z,101937.02
2022-10-19T16:58:22.918Z,101938.60
2022-10-19T17:03:32.971Z,101942.39
2022-10-19T17:14:12.068Z,101946.48
2022-10-19T17:19:20.069Z,101952.63
2022-10-19T17:24:27.406Z,101958.30
2022-10-19T17:29:34.863Z,101964.85
2022-10-19T17:34:42.011Z,101963.73
2022-10-19T17:39:53.146Z,101961.11
2022-10-19T17:45:00.556Z,101965.83
2022-10-19T17:50:08.599Z,101970.54
2022-10-19T17:55:14.307Z,101971.52
2022-10-19T18:00:21.778Z,101976.94
2022-10-19T18:05:28.886Z,101979.55
2022-10-19T18:10:38.276Z,101986.11
2022-10-19T18:15:53.059Z,101992.32
2022-10-19T18:21:00.731Z,101994.40
2022-10-19T18:26:10.549Z,101995.50
2022-10-19T18:31:19.835Z,102000.13
2022-10-19T18:36:27.600Z,102012.51
2022-10-19T18:41:33.556Z,102012.20
2022-10-19T18:46:41.775Z,102013.80
2022-10-19T18:51:54.083Z,102021.53
2022-10-19T18:57:03.073Z,102019.54
2022-10-19T19:02:22.091Z,102023.22
2022-10-19T19:07:31.839Z,102029.63
2022-10-19T19:12:38.997Z,102031.55
2022-10-19T19:17:50.374Z,102034.85
2022-10-19T19:22:57.531Z,102038.13
2022-10-19T19:28:04.923Z,102039.52
2022-10-19T19:33:12.014Z,102036.79
2022-10-19T19:38:19.278Z,102035.41
2022-10-19T19:43:26.340Z,102040.23
2022-10-19T19:48:33.259Z,102040.25
2022-10-19T19:53:40.583Z,102044.33
2022-10-19T19:58:47.990Z,102040.50
2022-10-19T20:03:56.007Z,102040.52
2022-10-19T20:09:01.487Z,102040.10
2022-10-19T20:14:08.871Z,102043.44
2022-10-19T20:19:16.875Z,102048.92
2022-10-19T20:24:24.383Z,102050.52
2022-10-19T20:29:31.506Z,102047.58
2022-10-19T20:34:39.026Z,102054.93
2022-10-19T20:39:46.871Z,102060.60
2022-10-19T20:44:54.765Z,102067.83
2022-10-19T20:55:14.467Z,102079.55
2022-10-19T21:00:21.615Z,102087.56
2022-10-19T21:05:29.016Z,102085.21
2022-10-19T21:10:36.010Z,102085.61
2022-10-19T21:15:43.029Z,102084.08
2022-10-19T21:20:50.474Z,102081.55
2022-10-19T21:25:58.667Z,102078.59
2022-10-19T21:31:10.555Z,102072.72
2022-10-19T21:36:18.137Z,102077.23
2022-10-19T21:41:26.717Z,102084.02
2022-10-19T21:46:33.884Z,102091.38
2022-10-19T21:51:43.941Z,102100.63
2022-10-19T21:56:51.688Z,102102.06
2022-10-19T22:01:59.966Z,102102.29
2022-10-19T22:07:06.979Z,102101.61
2022-10-19T22:17:21.989Z,102104.44
2022-10-19T22:22:28.854Z,102097.21
2022-10-19T22:27:36.410Z,102095.92
2022-10-19T22:32:43.324Z,102099.95
2022-10-19T22:37:50.359Z,102097.30
2022-10-19T22:43:12.632Z,102101.41
2022-10-19T22:48:21.296Z,102099.13
2022-10-19T22:53:30.387Z,102106.03
2022-10-19T22:58:37.485Z,102110.10
2022-10-19T23:03:45.352Z,102116.98
2022-10-19T23:08:53.888Z,102119.65
2022-10-19T23:14:01.111Z,102124.75
2022-10-19T23:19:08.453Z,102123.04
2022-10-19T23:24:15.719Z,102126.73
2022-10-19T23:29:23.096Z,102126.16
2022-10-19T23:34:30.311Z,102125.45
2022-10-19T23:39:37.435Z,102126.83
2022-10-19T23:44:44.377Z,102135.83
2022-10-19T23:49:51.241Z,102143.94
2022-10-19T23:54:58.229Z,102149.48
